Terminal Aerodrome Forecast
Issued by NWS

Home | Current Version | Previous Version | Text Only | Print | Product List | Glossary On
Versions: 1 2 3 4 5 6 7 8 9 10 11 12 13 14 15 16 17 18 19 20 21 22
410
FTUS41 KPBZ 290528
TAFZZV
TAF
KZZV 290528Z 2906/3006 12007KT 6SM -SHRA OVC070
     FM291000 11005KT P6SM VCSH OVC030
     FM291300 34003KT P6SM VCSH OVC020
     FM291700 04004KT P6SM -SHRA OVC020
     FM300000 36004KT 5SM -SHRA OVC010=

USA.gov is the U.S. government's official web portal to all federal, state and local government web resources and services.